createdAt,value
2022-12-28T00:00:12.266Z,1013.71
2022-12-28T00:01:12.203Z,1013.74
2022-12-28T00:02:12.220Z,1013.63
2022-12-28T00:03:12.208Z,1013.60
2022-12-28T00:04:12.160Z,1013.50
2022-12-28T00:05:12.167Z,1013.50
2022-12-28T00:06:12.207Z,1013.53
2022-12-28T00:07:12.124Z,1013.45
2022-12-28T00:08:12.114Z,1013.38
2022-12-28T00:09:12.127Z,1013.42
2022-12-28T00:10:12.076Z,1013.40
2022-12-28T00:11:20.316Z,1013.44
2022-12-28T00:12:12.116Z,1013.37
2022-12-28T00:13:12.080Z,1013.29
2022-12-28T00:14:12.072Z,1013.28
2022-12-28T00:15:12.048Z,1013.16
2022-12-28T00:16:12.042Z,1013.21
2022-12-28T00:17:12.027Z,1013.19
2022-12-28T00:18:12.012Z,1013.16
2022-12-28T00:19:12.015Z,1013.21
2022-12-28T00:20:11.969Z,1013.20
2022-12-28T00:21:11.964Z,1013.11
2022-12-28T00:22:12.004Z,1013.15
2022-12-28T00:23:11.963Z,1013.12
2022-12-28T00:24:11.943Z,1013.09
2022-12-28T00:25:11.927Z,1013.13
2022-12-28T00:26:11.925Z,1013.15
2022-12-28T00:27:11.893Z,1013.14
2022-12-28T00:28:11.889Z,1013.14
2022-12-28T00:29:11.907Z,1013.14
2022-12-28T00:30:11.896Z,1013.09
2022-12-28T00:31:11.911Z,1013.13
2022-12-28T00:32:11.864Z,1013.15
2022-12-28T00:33:18.378Z,1013.19
2022-12-28T00:34:11.830Z,1013.23
2022-12-28T00:35:11.819Z,1013.24
2022-12-28T00:36:11.833Z,1013.19
2022-12-28T00:37:13.104Z,1013.25
2022-12-28T00:38:11.795Z,1013.22
2022-12-28T00:39:11.805Z,1013.18
2022-12-28T00:40:11.774Z,1013.16
2022-12-28T00:41:11.772Z,1013.18
2022-12-28T00:42:11.727Z,1013.19
2022-12-28T00:43:11.716Z,1013.20
2022-12-28T00:44:11.741Z,1013.16
2022-12-28T00:45:11.728Z,1013.16
2022-12-28T00:46:11.715Z,1013.06
2022-12-28T00:47:11.687Z,1013.06
2022-12-28T00:48:11.685Z,1013.05
2022-12-28T00:49:11.670Z,1013.10
2022-12-28T00:50:11.647Z,1013.08
2022-12-28T00:51:11.644Z,1013.06
2022-12-28T00:52:11.619Z,1013.13
2022-12-28T00:54:22.340Z,1013.00
2022-12-28T00:55:23.314Z,1013.01
2022-12-28T00:56:23.288Z,1012.94
2022-12-28T00:57:23.303Z,1012.85
2022-12-28T00:58:23.274Z,1012.83
2022-12-28T00:59:23.254Z,1012.82
2022-12-28T01:00:23.262Z,1012.85
2022-12-28T01:01:23.335Z,1012.84
2022-12-28T01:02:23.228Z,1012.82
2022-12-28T01:03:23.221Z,1012.91
2022-12-28T01:04:23.206Z,1012.88
2022-12-28T01:05:23.208Z,1012.92
2022-12-28T01:06:23.195Z,1012.81
2022-12-28T01:07:23.250Z,1012.85
2022-12-28T01:08:23.179Z,1012.84
2022-12-28T01:09:23.154Z,1012.82
2022-12-28T01:10:23.155Z,1012.77
2022-12-28T01:11:23.164Z,1012.76
2022-12-28T01:12:23.138Z,1012.74
2022-12-28T01:13:23.095Z,1012.62
2022-12-28T01:14:23.112Z,1012.61
2022-12-28T01:15:23.091Z,1012.58
2022-12-28T01:16:23.125Z,1012.58
2022-12-28T01:17:23.050Z,1012.55
2022-12-28T01:18:23.067Z,1012.56
2022-12-28T01:19:23.055Z,1012.57
2022-12-28T01:20:23.030Z,1012.53
2022-12-28T01:21:23.034Z,1012.55
2022-12-28T01:22:23.033Z,1012.51
2022-12-28T01:23:29.493Z,1012.51
2022-12-28T01:24:23.001Z,1012.42
2022-12-28T01:25:22.987Z,1012.40
2022-12-28T01:26:22.983Z,1012.39
2022-12-28T01:27:22.939Z,1012.43
2022-12-28T01:28:22.930Z,1012.31
2022-12-28T01:29:22.921Z,1012.31
2022-12-28T01:30:22.918Z,1012.38
2022-12-28T01:31:23.009Z,1012.27
2022-12-28T01:32:22.912Z,1012.23
2022-12-28T01:33:22.867Z,1012.22
2022-12-28T01:34:22.886Z,1012.21
2022-12-28T01:35:22.883Z,1012.16
2022-12-28T01:36:22.845Z,1012.17
2022-12-28T01:37:22.849Z,1012.15
2022-12-28T01:38:22.925Z,1012.18
2022-12-28T01:39:22.835Z,1012.18
2022-12-28T01:40:22.804Z,1012.20
2022-12-28T01:41:22.810Z,1012.22
2022-12-28T01:42:22.779Z,1012.27
2022-12-28T01:43:29.833Z,1012.22
2022-12-28T01:44:22.777Z,1012.15
2022-12-28T01:45:22.742Z,1012.15
2022-12-28T01:46:22.733Z,1012.15
2022-12-28T01:47:22.718Z,1012.11
2022-12-28T01:48:22.730Z,1012.03
2022-12-28T01:49:22.702Z,1011.99
2022-12-28T01:50:22.761Z,1011.98
2022-12-28T01:51:22.731Z,1012.05
2022-12-28T01:52:22.680Z,1011.99
2022-12-28T01:53:22.645Z,1012.03
2022-12-28T01:54:22.655Z,1012.04
2022-12-28T01:55:22.641Z,1012.04
2022-12-28T01:56:22.630Z,1011.98
2022-12-28T01:57:22.642Z,1011.97
2022-12-28T01:58:22.609Z,1011.95
2022-12-28T01:59:22.584Z,1011.89
2022-12-28T02:00:22.595Z,1011.85
2022-12-28T02:01:22.666Z,1011.76
2022-12-28T02:02:22.712Z,1011.82
2022-12-28T02:03:22.704Z,1011.76
2022-12-28T02:04:22.557Z,1011.74
2022-12-28T02:05:22.553Z,1011.73
2022-12-28T02:06:22.517Z,1011.72
2022-12-28T02:07:22.523Z,1011.71
2022-12-28T02:08:22.481Z,1011.69
2022-12-28T02:09:22.551Z,1011.75
2022-12-28T02:10:42.726Z,1011.73
2022-12-28T02:11:22.494Z,1011.58
2022-12-28T02:12:22.442Z,1011.64
2022-12-28T02:13:22.450Z,1011.63
2022-12-28T02:14:22.439Z,1011.54
2022-12-28T02:15:23.349Z,1011.55
2022-12-28T02:16:22.484Z,1011.50
2022-12-28T02:17:22.406Z,1011.31
2022-12-28T02:18:22.399Z,1011.46
2022-12-28T02:19:22.381Z,1011.42
2022-12-28T02:20:22.349Z,1011.40
2022-12-28T02:21:22.376Z,1011.35
2022-12-28T02:22:22.349Z,1011.36
2022-12-28T02:23:22.350Z,1011.34
2022-12-28T02:24:22.341Z,1011.40
2022-12-28T02:25:22.306Z,1011.36
2022-12-28T02:26:22.291Z,1011.38
2022-12-28T02:27:22.269Z,1011.38
2022-12-28T02:28:22.267Z,1011.35
2022-12-28T02:29:22.278Z,1011.33
2022-12-28T02:30:22.262Z,1011.38
2022-12-28T02:31:22.259Z,1011.37
2022-12-28T02:32:22.241Z,1011.35
2022-12-28T02:33:29.354Z,1011.29
2022-12-28T02:34:22.343Z,1011.31
2022-12-28T02:35:22.198Z,1011.29
2022-12-28T02:36:22.184Z,1011.27
2022-12-28T02:37:22.188Z,1011.28
2022-12-28T02:38:22.181Z,1011.29
2022-12-28T02:39:22.147Z,1011.27
2022-12-28T02:40:22.235Z,1011.16
2022-12-28T02:41:22.148Z,1011.21
2022-12-28T02:42:22.152Z,1011.15
2022-12-28T02:43:22.114Z,1011.15
2022-12-28T02:44:22.092Z,1011.07
2022-12-28T02:45:22.098Z,1011.04
2022-12-28T02:46:22.104Z,1011.09
2022-12-28T02:47:22.062Z,1011.03
2022-12-28T02:48:22.069Z,1011.06
2022-12-28T02:49:22.048Z,1011.03
2022-12-28T02:50:22.051Z,1011.00
2022-12-28T02:51:22.013Z,1011.04
2022-12-28T02:52:22.014Z,1010.96
2022-12-28T02:53:28.515Z,1011.02
2022-12-28T02:54:21.977Z,1010.95
2022-12-28T02:55:21.982Z,1011.00
2022-12-28T02:56:22.338Z,1010.91
2022-12-28T02:57:21.935Z,1010.99
2022-12-28T02:58:21.930Z,1011.00
2022-12-28T02:59:21.939Z,1010.98
2022-12-28T03:00:21.933Z,1010.89
2022-12-28T03:01:22.009Z,1010.90
2022-12-28T03:02:22.055Z,1010.87
2022-12-28T03:03:21.944Z,1010.84
2022-12-28T03:04:21.908Z,1010.79
2022-12-28T03:05:21.845Z,1010.78
2022-12-28T03:06:26.930Z,1010.76
2022-12-28T03:07:21.862Z,1010.77
2022-12-28T03:08:21.843Z,1010.76
2022-12-28T03:09:21.807Z,1010.67
2022-12-28T03:10:21.828Z,1010.71
2022-12-28T03:11:21.831Z,1010.66
2022-12-28T03:12:21.781Z,1010.62
2022-12-28T03:13:21.763Z,1010.60
2022-12-28T03:14:21.761Z,1010.54
2022-12-28T03:15:21.785Z,1010.52
2022-12-28T03:16:21.852Z,1010.47
2022-12-28T03:17:21.736Z,1010.47
2022-12-28T03:18:21.736Z,1010.40
2022-12-28T03:19:21.750Z,1010.47
2022-12-28T03:20:21.696Z,1010.50
2022-12-28T03:21:21.717Z,1010.45
2022-12-28T03:22:21.683Z,1010.41
2022-12-28T03:23:21.676Z,1010.41
2022-12-28T03:24:21.665Z,1010.43
2022-12-28T03:25:21.657Z,1010.35
2022-12-28T03:26:21.647Z,1010.46
2022-12-28T03:27:21.676Z,1010.41
2022-12-28T03:28:21.619Z,1010.38
2022-12-28T03:29:21.629Z,1010.44
2022-12-28T03:30:21.628Z,1010.49
2022-12-28T03:31:21.636Z,1010.36
2022-12-28T03:32:21.586Z,1010.35
2022-12-28T03:33:21.567Z,1010.47
2022-12-28T03:34:21.526Z,1010.32
2022-12-28T03:35:21.526Z,1010.31
2022-12-28T03:36:21.549Z,1010.24
2022-12-28T03:37:21.508Z,1010.31
2022-12-28T03:38:21.530Z,1010.25
2022-12-28T03:39:21.475Z,1010.23
2022-12-28T03:40:21.487Z,1010.26
2022-12-28T03:41:21.507Z,1010.31
2022-12-28T03:42:21.543Z,1010.23
2022-12-28T03:43:27.990Z,1010.21
2022-12-28T03:44:21.459Z,1010.17
2022-12-28T03:45:46.547Z,1010.14
2022-12-28T03:46:21.500Z,1010.17
2022-12-28T03:47:21.438Z,1010.09
2022-12-28T03:48:21.369Z,1010.11
2022-12-28T03:49:21.366Z,1010.03
2022-12-28T03:50:21.400Z,1010.14
2022-12-28T03:51:21.368Z,1010.11
2022-12-28T03:52:21.361Z,1010.06
2022-12-28T03:53:21.322Z,1010.06
2022-12-28T03:54:21.364Z,1010.02
2022-12-28T03:55:21.348Z,1010.09
2022-12-28T03:56:21.335Z,1009.98
2022-12-28T03:57:21.269Z,1009.85
2022-12-28T03:58:21.284Z,1009.88
2022-12-28T03:59:21.302Z,1009.93
2022-12-28T04:00:21.261Z,1009.89
2022-12-28T04:01:21.333Z,1009.90
2022-12-28T04:02:21.730Z,1009.96
2022-12-28T04:03:27.804Z,1009.89
2022-12-28T04:04:21.249Z,1009.80
2022-12-28T04:05:21.182Z,1009.75
2022-12-28T04:06:21.230Z,1009.76
2022-12-28T04:07:21.196Z,1009.78
2022-12-28T04:08:21.176Z,1009.76
2022-12-28T04:09:21.181Z,1009.73
2022-12-28T04:10:21.128Z,1009.69
2022-12-28T04:11:21.126Z,1009.72
2022-12-28T04:12:21.120Z,1009.73
2022-12-28T04:13:21.165Z,1009.72
2022-12-28T04:14:21.107Z,1009.69
2022-12-28T04:15:21.094Z,1009.67
2022-12-28T04:16:21.133Z,1009.68
2022-12-28T04:17:21.043Z,1009.66
2022-12-28T04:18:21.065Z,1009.63
2022-12-28T04:19:21.057Z,1009.63
2022-12-28T04:20:21.050Z,1009.59
2022-12-28T04:21:21.000Z,1009.65
2022-12-28T04:22:20.994Z,1009.62
2022-12-28T04:23:20.992Z,1009.64
2022-12-28T04:24:21.022Z,1009.62
2022-12-28T04:25:20.988Z,1009.62
2022-12-28T04:26:20.984Z,1009.57
2022-12-28T04:27:20.960Z,1009.58
2022-12-28T04:28:20.955Z,1009.55
2022-12-28T04:29:20.912Z,1009.52
2022-12-28T04:30:20.927Z,1009.50
2022-12-28T04:31:21.031Z,1009.49
2022-12-28T04:32:20.916Z,1009.51
2022-12-28T04:33:27.399Z,1009.48
2022-12-28T04:34:20.888Z,1009.46
2022-12-28T04:35:20.849Z,1009.43
2022-12-28T04:36:20.838Z,1009.44
2022-12-28T04:37:20.852Z,1009.42
2022-12-28T04:38:20.838Z,1009.40
2022-12-28T04:39:20.800Z,1009.38
2022-12-28T04:40:20.821Z,1009.47
2022-12-28T04:41:20.802Z,1009.38
2022-12-28T04:42:20.785Z,1009.44
2022-12-28T04:43:20.760Z,1009.41
2022-12-28T04:44:20.819Z,1009.33
2022-12-28T04:45:22.353Z,1009.38
2022-12-28T04:46:20.787Z,1009.39
2022-12-28T04:47:20.721Z,1009.37
2022-12-28T04:48:20.724Z,1009.35
2022-12-28T04:49:20.687Z,1009.35
2022-12-28T04:50:20.682Z,1009.34
2022-12-28T04:51:20.694Z,1009.33
2022-12-28T04:52:20.681Z,1009.29
2022-12-28T04:53:27.177Z,1009.32
2022-12-28T04:54:20.674Z,1009.30
2022-12-28T04:55:33.018Z,1009.34
2022-12-28T04:56:20.629Z,1009.27
2022-12-28T04:57:20.619Z,1009.26
2022-12-28T04:58:20.601Z,1009.27
2022-12-28T04:59:20.602Z,1009.22
2022-12-28T05:00:20.595Z,1009.27
2022-12-28T05:01:20.736Z,1009.23
2022-12-28T05:02:20.720Z,1009.24
2022-12-28T05:03:20.547Z,1009.23
2022-12-28T05:04:20.560Z,1009.27
2022-12-28T05:05:20.566Z,1009.22
2022-12-28T05:06:20.530Z,1009.20
2022-12-28T05:07:20.519Z,1009.21
2022-12-28T05:08:20.514Z,1009.14
2022-12-28T05:09:20.484Z,1009.15
2022-12-28T05:10:20.494Z,1009.15
2022-12-28T05:11:20.440Z,1009.10
2022-12-28T05:12:20.447Z,1009.17
2022-12-28T05:13:20.419Z,1009.11
2022-12-28T05:14:20.417Z,1009.07
2022-12-28T05:15:20.440Z,1009.11
2022-12-28T05:16:20.418Z,1009.10
2022-12-28T05:17:20.381Z,1009.04
2022-12-28T05:18:20.396Z,1009.15
2022-12-28T05:19:20.355Z,1009.16
2022-12-28T05:20:20.386Z,1009.13
2022-12-28T05:21:20.351Z,1009.07
2022-12-28T05:22:20.334Z,1009.06
2022-12-28T05:23:26.827Z,1009.12
2022-12-28T05:24:20.325Z,1009.08
2022-12-28T05:25:20.298Z,1009.05
2022-12-28T05:26:20.302Z,1009.05
2022-12-28T05:27:20.286Z,1009.10
2022-12-28T05:28:20.284Z,1009.09
2022-12-28T05:29:20.242Z,1009.07
2022-12-28T05:30:20.282Z,1009.08
2022-12-28T05:31:20.269Z,1009.09
2022-12-28T05:32:20.243Z,1009.01
2022-12-28T05:33:20.222Z,1008.99
2022-12-28T05:34:20.224Z,1009.00
2022-12-28T05:35:20.181Z,1009.01
2022-12-28T05:36:20.191Z,1008.95
2022-12-28T05:37:22.196Z,1009.01
2022-12-28T05:38:20.167Z,1008.95
2022-12-28T05:39:20.143Z,1008.91
2022-12-28T05:40:20.151Z,1008.94
2022-12-28T05:41:20.122Z,1008.91
2022-12-28T05:42:20.105Z,1008.88
2022-12-28T05:43:26.627Z,1008.93
2022-12-28T05:44:20.095Z,1008.93
2022-12-28T05:45:20.075Z,1008.88
2022-12-28T05:46:20.165Z,1008.92
2022-12-28T05:47:20.059Z,1008.90
2022-12-28T05:48:20.064Z,1008.81
2022-12-28T05:49:20.043Z,1008.81
2022-12-28T05:50:20.039Z,1008.73
2022-12-28T05:51:20.012Z,1008.66
2022-12-28T05:52:20.016Z,1008.66
2022-12-28T05:53:19.977Z,1008.72
2022-12-28T05:54:19.991Z,1008.65
2022-12-28T05:55:19.970Z,1008.67
2022-12-28T05:56:19.980Z,1008.64
2022-12-28T05:57:19.927Z,1008.67
2022-12-28T05:58:19.934Z,1008.62
2022-12-28T05:59:19.924Z,1008.62
2022-12-28T06:00:19.927Z,1008.59
2022-12-28T06:01:19.945Z,1008.58
2022-12-28T06:02:24.560Z,1008.52
2022-12-28T06:03:19.957Z,1008.51
2022-12-28T06:04:19.897Z,1008.52
2022-12-28T06:05:19.859Z,1008.55
2022-12-28T06:06:19.864Z,1008.46
2022-12-28T06:07:19.821Z,1008.49
2022-12-28T06:08:22.783Z,1008.45
2022-12-28T06:09:19.808Z,1008.51
2022-12-28T06:10:19.822Z,1008.51
2022-12-28T06:11:19.787Z,1008.50
2022-12-28T06:12:19.786Z,1008.45
2022-12-28T06:13:26.283Z,1008.40
2022-12-28T06:14:19.778Z,1008.46
2022-12-28T06:15:19.736Z,1008.40
2022-12-28T06:16:19.787Z,1008.43
2022-12-28T06:17:19.774Z,1008.34
2022-12-28T06:18:19.732Z,1008.45
2022-12-28T06:19:19.695Z,1008.45
2022-12-28T06:20:19.676Z,1008.37
2022-12-28T06:21:19.695Z,1008.45
2022-12-28T06:22:19.661Z,1008.47
2022-12-28T06:23:19.645Z,1008.43
2022-12-28T06:24:19.679Z,1008.49
2022-12-28T06:25:19.614Z,1008.42
2022-12-28T06:26:19.635Z,1008.38
2022-12-28T06:27:19.611Z,1008.40
2022-12-28T06:28:19.605Z,1008.42
2022-12-28T06:29:19.605Z,1008.38
2022-12-28T06:30:19.561Z,1008.36
2022-12-28T06:31:19.574Z,1008.48
2022-12-28T06:32:19.569Z,1008.33
2022-12-28T06:33:19.527Z,1008.34
2022-12-28T06:34:19.546Z,1008.30
2022-12-28T06:35:19.529Z,1008.33
2022-12-28T06:36:20.550Z,1008.30
2022-12-28T06:37:19.499Z,1008.28
2022-12-28T06:38:19.493Z,1008.27
2022-12-28T06:39:19.457Z,1008.22
2022-12-28T06:40:21.917Z,1008.22
2022-12-28T06:41:19.477Z,1008.24
2022-12-28T06:42:19.471Z,1008.20
2022-12-28T06:43:25.962Z,1008.26
2022-12-28T06:44:19.417Z,1008.25
2022-12-28T06:45:19.404Z,1008.23
2022-12-28T06:46:19.526Z,1008.28
2022-12-28T06:47:19.381Z,1008.22
2022-12-28T06:48:19.413Z,1008.25
2022-12-28T06:49:19.384Z,1008.22
2022-12-28T06:50:19.352Z,1008.25
2022-12-28T06:51:19.363Z,1008.16
2022-12-28T06:52:19.324Z,1008.23
2022-12-28T06:53:19.321Z,1008.21
2022-12-28T06:54:19.298Z,1008.20
2022-12-28T06:55:19.299Z,1008.13
2022-12-28T06:56:19.283Z,1008.06
2022-12-28T06:57:19.258Z,1008.09
2022-12-28T06:58:19.271Z,1008.11
2022-12-28T06:59:19.261Z,1008.11
2022-12-28T07:00:19.233Z,1008.10
2022-12-28T07:01:19.345Z,1008.09
2022-12-28T07:02:19.404Z,1008.08
2022-12-28T07:03:19.224Z,1008.09
2022-12-28T07:04:19.189Z,1008.08
2022-12-28T07:05:19.194Z,1008.16
2022-12-28T07:06:19.156Z,1008.14
2022-12-28T07:07:19.170Z,1008.12
2022-12-28T07:08:19.134Z,1008.08
2022-12-28T07:09:19.131Z,1008.12
2022-12-28T07:10:19.127Z,1008.12
2022-12-28T07:11:19.140Z,1008.15
2022-12-28T07:12:19.092Z,1008.21
2022-12-28T07:13:24.434Z,1008.12
2022-12-28T07:14:19.078Z,1008.15
2022-12-28T07:15:19.109Z,1008.14
2022-12-28T07:16:19.075Z,1008.14
2022-12-28T07:17:19.036Z,1008.17
2022-12-28T07:18:19.057Z,1008.19
2022-12-28T07:19:19.046Z,1008.20
2022-12-28T07:20:19.032Z,1008.23
2022-12-28T07:21:18.988Z,1008.13
2022-12-28T07:22:19.017Z,1008.11
2022-12-28T07:23:25.505Z,1008.11
2022-12-28T07:24:18.995Z,1008.06
2022-12-28T07:25:18.947Z,1008.08
2022-12-28T07:26:18.961Z,1008.04
2022-12-28T07:27:18.939Z,1008.13
2022-12-28T07:28:18.975Z,1008.10
2022-12-28T07:29:18.907Z,1008.09
2022-12-28T07:30:18.941Z,1008.15
2022-12-28T07:31:18.996Z,1008.12
2022-12-28T07:32:18.912Z,1008.04
2022-12-28T07:33:18.872Z,1008.03
2022-12-28T07:34:18.869Z,1008.03
2022-12-28T07:35:18.827Z,1008.04
2022-12-28T07:36:18.861Z,1008.05
2022-12-28T07:37:18.844Z,1008.04
2022-12-28T07:38:21.510Z,1008.03
2022-12-28T07:39:18.793Z,1008.04
2022-12-28T07:40:18.995Z,1008.11
2022-12-28T07:41:18.770Z,1008.08
2022-12-28T07:42:18.929Z,1008.11
2022-12-28T07:43:18.744Z,1008.09
2022-12-28T07:44:18.755Z,1008.06
2022-12-28T07:45:18.731Z,1008.07
2022-12-28T07:46:19.185Z,1008.13
2022-12-28T07:47:18.711Z,1008.01
2022-12-28T07:48:18.734Z,1008.05
2022-12-28T07:49:18.664Z,1008.08
2022-12-28T07:50:18.772Z,1008.06
2022-12-28T07:51:18.650Z,1008.10
2022-12-28T07:52:18.645Z,1008.09
2022-12-28T07:53:25.142Z,1008.02
2022-12-28T07:54:18.653Z,1008.09
2022-12-28T07:55:18.626Z,1008.06
2022-12-28T07:56:18.595Z,1008.09
2022-12-28T07:57:18.603Z,1008.08
2022-12-28T07:58:18.605Z,1008.08
2022-12-28T07:59:18.552Z,1008.09
2022-12-28T08:00:18.569Z,1008.13
2022-12-28T08:01:18.619Z,1008.08
2022-12-28T08:02:18.632Z,1008.11
2022-12-28T08:03:18.590Z,1008.11
2022-12-28T08:04:18.968Z,1008.09
2022-12-28T08:05:18.505Z,1008.08
2022-12-28T08:06:18.498Z,1008.09
2022-12-28T08:07:18.492Z,1008.05
2022-12-28T08:08:18.489Z,1008.10
2022-12-28T08:09:18.455Z,1008.12
2022-12-28T08:10:18.454Z,1008.08
2022-12-28T08:11:18.473Z,1008.09
2022-12-28T08:12:18.448Z,1008.08
2022-12-28T08:13:18.428Z,1008.10
2022-12-28T08:14:18.421Z,1008.09
2022-12-28T08:15:18.440Z,1008.07
2022-12-28T08:16:18.497Z,1008.10
2022-12-28T08:17:21.203Z,1008.07
2022-12-28T08:18:18.364Z,1008.08
2022-12-28T08:19:18.371Z,1008.08
2022-12-28T08:20:18.321Z,1008.07
2022-12-28T08:21:18.355Z,1008.11
2022-12-28T08:22:18.336Z,1008.09
2022-12-28T08:23:18.309Z,1008.13
2022-12-28T08:24:18.289Z,1008.10
2022-12-28T08:25:18.299Z,1008.17
2022-12-28T08:26:18.282Z,1008.10
2022-12-28T08:27:18.284Z,1008.15
2022-12-28T08:28:18.254Z,1008.08
2022-12-28T08:29:18.257Z,1008.11
2022-12-28T08:30:18.204Z,1008.13
2022-12-28T08:31:18.259Z,1008.10
2022-12-28T08:32:18.479Z,1008.09
2022-12-28T08:33:18.217Z,1008.15
2022-12-28T08:34:18.188Z,1008.10
2022-12-28T08:35:18.191Z,1008.04
2022-12-28T08:36:18.572Z,1008.12
2022-12-28T08:37:18.150Z,1008.06
2022-12-28T08:38:18.151Z,1008.07
2022-12-28T08:39:18.184Z,1008.06
2022-12-28T08:40:18.117Z,1008.07
2022-12-28T08:41:18.111Z,1008.08
2022-12-28T08:42:18.090Z,1008.07
2022-12-28T08:43:24.621Z,1008.04
2022-12-28T08:44:18.080Z,1008.03
2022-12-28T08:45:18.041Z,1008.08
2022-12-28T08:46:18.143Z,1008.03
2022-12-28T08:47:18.091Z,1008.04
2022-12-28T08:48:18.071Z,1008.04
2022-12-28T08:49:18.000Z,1008.00
2022-12-28T08:50:20.095Z,1008.02
2022-12-28T08:51:18.007Z,1007.99
2022-12-28T08:52:18.052Z,1007.95
2022-12-28T08:53:17.952Z,1007.98
2022-12-28T08:54:17.962Z,1007.90
2022-12-28T08:55:17.961Z,1007.91
2022-12-28T08:56:17.974Z,1007.94
2022-12-28T08:57:17.937Z,1007.91
2022-12-28T08:58:17.907Z,1007.88
2022-12-28T08:59:17.925Z,1007.91
2022-12-28T09:00:17.915Z,1007.91
2022-12-28T09:01:18.072Z,1007.90
2022-12-28T09:02:17.947Z,1007.95
2022-12-28T09:03:24.443Z,1007.88
2022-12-28T09:04:17.842Z,1007.82
2022-12-28T09:05:17.848Z,1007.91
2022-12-28T09:06:17.805Z,1007.93
2022-12-28T09:07:17.850Z,1007.88
2022-12-28T09:08:17.778Z,1007.94
2022-12-28T09:09:17.829Z,1007.88
2022-12-28T09:10:17.772Z,1007.92
2022-12-28T09:11:17.790Z,1007.92
2022-12-28T09:12:17.737Z,1007.92
2022-12-28T09:13:17.725Z,1007.91
2022-12-28T09:14:23.176Z,1007.94
2022-12-28T09:15:17.748Z,1007.91
2022-12-28T09:16:17.732Z,1007.96
2022-12-28T09:17:17.708Z,1007.94
2022-12-28T09:18:17.664Z,1007.95
2022-12-28T09:19:17.661Z,1007.93
2022-12-28T09:20:17.661Z,1007.90
2022-12-28T09:21:17.656Z,1007.92
2022-12-28T09:22:17.626Z,1007.94
2022-12-28T09:24:28.536Z,1007.95
2022-12-28T09:25:29.286Z,1008.04
2022-12-28T09:26:29.291Z,1007.94
2022-12-28T09:27:29.263Z,1007.98
2022-12-28T09:28:29.260Z,1007.93
2022-12-28T09:29:29.256Z,1007.96
2022-12-28T09:30:29.265Z,1007.94
2022-12-28T09:31:29.380Z,1007.97
2022-12-28T09:32:29.249Z,1007.99
2022-12-28T09:33:29.202Z,1008.03
2022-12-28T09:34:36.115Z,1008.01
2022-12-28T09:35:29.220Z,1008.00
2022-12-28T09:36:29.178Z,1008.02
2022-12-28T09:37:29.166Z,1008.01
2022-12-28T09:38:29.147Z,1008.05
2022-12-28T09:39:29.300Z,1008.01
2022-12-28T09:40:29.143Z,1007.95
2022-12-28T09:41:29.129Z,1007.97
2022-12-28T09:42:29.090Z,1007.99
2022-12-28T09:43:35.632Z,1008.02
2022-12-28T09:44:29.059Z,1007.99
2022-12-28T09:45:29.055Z,1007.97
2022-12-28T09:46:29.093Z,1008.05
2022-12-28T09:47:29.053Z,1008.01
2022-12-28T09:48:29.036Z,1008.03
2022-12-28T09:49:29.022Z,1008.00
2022-12-28T09:50:29.043Z,1008.02
2022-12-28T09:51:29.017Z,1008.05
2022-12-28T09:52:28.992Z,1008.04
2022-12-28T09:53:28.980Z,1008.07
2022-12-28T09:54:29.022Z,1008.06
2022-12-28T09:55:28.957Z,1008.03
2022-12-28T09:56:28.942Z,1008.00
2022-12-28T09:57:28.948Z,1008.02
2022-12-28T09:58:28.947Z,1008.00
2022-12-28T09:59:28.892Z,1008.02
2022-12-28T10:00:28.903Z,1008.02
2022-12-28T10:01:29.002Z,1008.00
2022-12-28T10:02:29.060Z,1007.99
2022-12-28T10:03:35.501Z,1007.97
2022-12-28T10:04:28.910Z,1007.95
2022-12-28T10:05:28.857Z,1007.94
2022-12-28T10:06:28.838Z,1007.93
2022-12-28T10:07:28.805Z,1007.88
2022-12-28T10:08:28.801Z,1007.91
2022-12-28T10:09:28.816Z,1007.93
2022-12-28T10:10:28.780Z,1007.88
2022-12-28T10:11:28.785Z,1007.89
2022-12-28T10:12:28.785Z,1007.95
2022-12-28T10:13:53.706Z,1007.92
2022-12-28T10:14:28.728Z,1007.87
2022-12-28T10:15:28.744Z,1007.86
2022-12-28T10:16:28.774Z,1007.92
2022-12-28T10:17:28.744Z,1007.90
2022-12-28T10:18:28.684Z,1007.89
2022-12-28T10:19:28.810Z,1007.93
2022-12-28T10:20:28.656Z,1007.90
2022-12-28T10:21:32.722Z,1007.91
2022-12-28T10:22:28.631Z,1007.87
2022-12-28T10:23:41.230Z,1007.85
2022-12-28T10:24:32.673Z,1007.82
2022-12-28T10:25:28.671Z,1007.83
2022-12-28T10:26:28.641Z,1007.78
2022-12-28T10:27:28.604Z,1007.79
2022-12-28T10:28:28.580Z,1007.76
2022-12-28T10:29:28.557Z,1007.80
2022-12-28T10:30:28.546Z,1007.77
2022-12-28T10:31:28.583Z,1007.78
2022-12-28T10:32:28.535Z,1007.76
2022-12-28T10:33:28.543Z,1007.81
2022-12-28T10:34:33.529Z,1007.73
2022-12-28T10:35:28.536Z,1007.73
2022-12-28T10:44:39.277Z,1007.65
2022-12-28T10:45:30.111Z,1007.63
2022-12-28T10:46:30.095Z,1007.57
2022-12-28T10:47:30.048Z,1007.57
2022-12-28T10:48:30.036Z,1007.53
2022-12-28T10:49:30.042Z,1007.57
2022-12-28T10:50:38.059Z,1007.63
2022-12-28T10:51:30.033Z,1007.52
2022-12-28T10:52:29.990Z,1007.54
2022-12-28T10:53:30.019Z,1007.45
2022-12-28T10:54:30.803Z,1007.47
2022-12-28T10:55:30.255Z,1007.44
2022-12-28T10:56:30.055Z,1007.48
2022-12-28T10:57:29.954Z,1007.43
2022-12-28T10:58:31.614Z,1007.40
2022-12-28T10:59:29.918Z,1007.37
2022-12-28T11:00:29.937Z,1007.41
2022-12-28T11:01:30.058Z,1007.37
2022-12-28T11:02:30.141Z,1007.37
2022-12-28T11:03:20.474Z,1007.68
2022-12-28T11:03:36.417Z,1007.33
2022-12-28T11:04:29.867Z,1007.35
2022-12-28T11:05:29.874Z,1007.30
2022-12-28T11:06:29.838Z,1007.35
2022-12-28T11:07:29.833Z,1007.28
2022-12-28T11:08:29.817Z,1007.21
2022-12-28T11:09:29.822Z,1007.24
2022-12-28T11:10:29.810Z,1007.26
2022-12-28T11:11:29.785Z,1007.20
2022-12-28T11:12:29.804Z,1007.21
2022-12-28T11:13:29.756Z,1007.18
2022-12-28T11:14:29.758Z,1007.20
2022-12-28T11:15:29.771Z,1007.21
2022-12-28T11:16:29.754Z,1007.17
2022-12-28T11:17:29.714Z,1007.17
2022-12-28T11:18:34.660Z,1007.20
2022-12-28T11:19:29.753Z,1007.14
2022-12-28T11:20:29.670Z,1007.08
2022-12-28T11:21:30.478Z,1007.07
2022-12-28T11:22:29.686Z,1007.07
2022-12-28T11:23:36.177Z,1007.12
2022-12-28T11:24:33.476Z,1007.15
2022-12-28T11:25:29.636Z,1007.14
2022-12-28T11:26:29.705Z,1007.18
2022-12-28T11:27:29.615Z,1007.19
2022-12-28T11:28:29.617Z,1007.17
2022-12-28T11:29:29.606Z,1007.16
2022-12-28T11:30:29.597Z,1007.09
2022-12-28T11:31:29.641Z,1007.10
2022-12-28T11:32:29.579Z,1007.08
2022-12-28T11:33:29.549Z,1007.12
2022-12-28T11:34:29.538Z,1007.09
2022-12-28T11:35:29.552Z,1007.07
2022-12-28T11:36:29.521Z,1007.05
2022-12-28T11:37:29.524Z,1007.04
2022-12-28T11:38:29.500Z,1007.01
2022-12-28T11:39:29.490Z,1006.99
2022-12-28T11:40:29.497Z,1006.96
2022-12-28T11:41:33.609Z,1006.96
2022-12-28T11:42:39.114Z,1006.99
2022-12-28T11:43:29.465Z,1007.04
2022-12-28T11:44:29.423Z,1007.01
2022-12-28T11:45:29.435Z,1006.97
2022-12-28T11:46:29.409Z,1007.03
2022-12-28T11:47:29.395Z,1007.00
2022-12-28T11:48:29.380Z,1006.95
2022-12-28T11:49:29.384Z,1006.94
2022-12-28T11:50:29.342Z,1006.96
2022-12-28T11:51:29.345Z,1006.93
2022-12-28T11:52:29.345Z,1006.89
2022-12-28T11:53:29.354Z,1006.91
2022-12-28T11:54:29.324Z,1006.99
2022-12-28T11:55:29.312Z,1006.91
2022-12-28T11:56:29.295Z,1006.90
2022-12-28T11:57:29.327Z,1006.87
2022-12-28T11:58:29.255Z,1006.87
2022-12-28T11:59:29.240Z,1006.82
2022-12-28T12:00:29.264Z,1006.84
2022-12-28T12:01:29.347Z,1006.86
2022-12-28T12:02:29.268Z,1006.79
2022-12-28T12:03:29.287Z,1006.77
2022-12-28T12:04:29.212Z,1006.81
2022-12-28T12:05:29.205Z,1006.75
2022-12-28T12:06:34.153Z,1006.85
2022-12-28T12:07:32.163Z,1006.85
2022-12-28T12:08:29.156Z,1006.85
2022-12-28T12:09:29.157Z,1006.83
2022-12-28T12:10:29.115Z,1006.81
2022-12-28T12:11:29.135Z,1006.79
2022-12-28T12:12:29.127Z,1006.72
2022-12-28T12:13:35.625Z,1006.73
2022-12-28T12:14:29.090Z,1006.74